createdAt,value
2023-01-05T00:00:02.440Z,988.05
2023-01-05T00:01:02.838Z,988.08
2023-01-05T00:02:02.734Z,988.10
2023-01-05T00:03:02.374Z,988.00
2023-01-05T00:04:02.395Z,987.96
2023-01-05T00:05:02.379Z,988.01
2023-01-05T00:06:02.334Z,987.97
2023-01-05T00:07:02.323Z,987.98
2023-01-05T00:08:02.327Z,987.92
2023-01-05T00:09:02.309Z,987.92
2023-01-05T00:10:02.320Z,987.93
2023-01-05T00:11:02.287Z,987.81
2023-01-05T00:12:02.279Z,987.81
2023-01-05T00:13:02.266Z,987.78
2023-01-05T00:14:02.265Z,987.78
2023-01-05T00:15:02.252Z,987.86
2023-01-05T00:16:02.680Z,987.72
2023-01-05T00:17:02.286Z,987.82
2023-01-05T00:18:02.257Z,987.78
2023-01-05T00:19:02.219Z,987.71
2023-01-05T00:20:02.207Z,987.70
2023-01-05T00:21:02.202Z,987.76
2023-01-05T00:22:02.204Z,987.74
2023-01-05T00:23:02.184Z,987.82
2023-01-05T00:24:02.172Z,987.86
2023-01-05T00:25:07.525Z,987.79
2023-01-05T00:26:02.147Z,987.82
2023-01-05T00:27:02.156Z,987.72
2023-01-05T00:28:02.366Z,987.74
2023-01-05T00:29:02.139Z,987.72
2023-01-05T00:30:02.144Z,987.68
2023-01-05T00:31:02.108Z,987.66
2023-01-05T00:32:02.194Z,987.81
2023-01-05T00:33:02.100Z,987.82
2023-01-05T00:34:02.305Z,987.77
2023-01-05T00:35:02.052Z,987.77
2023-01-05T00:36:02.263Z,987.71
2023-01-05T00:37:02.039Z,987.66
2023-01-05T00:38:02.041Z,987.71
2023-01-05T00:39:02.025Z,987.69
2023-01-05T00:40:02.008Z,987.69
2023-01-05T00:41:02.242Z,987.52
2023-01-05T00:42:01.997Z,987.67
2023-01-05T00:43:02.026Z,987.59
2023-01-05T00:44:01.966Z,987.48
2023-01-05T00:45:01.978Z,987.54
2023-01-05T00:46:02.027Z,987.60
2023-01-05T00:47:01.948Z,987.59
2023-01-05T00:48:01.951Z,987.71
2023-01-05T00:49:01.941Z,987.67
2023-01-05T00:50:01.999Z,987.70
2023-01-05T00:51:01.965Z,987.76
2023-01-05T00:52:01.893Z,987.75
2023-01-05T00:53:01.900Z,987.72
2023-01-05T00:54:01.917Z,987.79
2023-01-05T00:55:01.874Z,987.84
2023-01-05T00:56:02.072Z,987.68
2023-01-05T00:57:01.872Z,987.80
2023-01-05T00:58:01.856Z,987.79
2023-01-05T00:59:01.848Z,987.81
2023-01-05T01:00:02.062Z,987.77
2023-01-05T01:01:01.923Z,987.84
2023-01-05T01:02:02.195Z,987.76
2023-01-05T01:03:01.848Z,987.84
2023-01-05T01:04:01.856Z,987.88
2023-01-05T01:05:01.991Z,987.87
2023-01-05T01:06:01.797Z,987.87
2023-01-05T01:07:01.763Z,987.75
2023-01-05T01:08:01.754Z,987.82
2023-01-05T01:09:01.966Z,987.96
2023-01-05T01:10:01.975Z,987.79
2023-01-05T01:11:02.129Z,987.98
2023-01-05T01:12:01.722Z,987.84
2023-01-05T01:13:01.717Z,987.76
2023-01-05T01:14:01.695Z,987.88
2023-01-05T01:15:01.693Z,987.83
2023-01-05T01:16:01.676Z,987.88
2023-01-05T01:17:01.800Z,987.89
2023-01-05T01:18:01.662Z,987.80
2023-01-05T01:19:05.161Z,987.86
2023-01-05T01:20:01.672Z,987.87
2023-01-05T01:21:01.632Z,987.89
2023-01-05T01:22:01.920Z,987.93
2023-01-05T01:23:01.616Z,987.91
2023-01-05T01:24:01.602Z,988.01
2023-01-05T01:25:01.581Z,987.86
2023-01-05T01:26:01.613Z,987.79
2023-01-05T01:27:01.567Z,987.96
2023-01-05T01:28:01.576Z,987.87
2023-01-05T01:29:01.577Z,987.87
2023-01-05T01:30:01.621Z,987.94
2023-01-05T01:31:01.570Z,987.84
2023-01-05T01:32:01.539Z,987.85
2023-01-05T01:33:01.527Z,987.85
2023-01-05T01:34:01.734Z,987.98
2023-01-05T01:35:01.704Z,987.91
2023-01-05T01:36:01.501Z,987.93
2023-01-05T01:37:02.832Z,987.94
2023-01-05T01:38:01.546Z,988.14
2023-01-05T01:39:01.461Z,987.85
2023-01-05T01:40:01.459Z,987.93
2023-01-05T01:41:01.452Z,987.91
2023-01-05T01:42:01.649Z,987.92
2023-01-05T01:43:01.440Z,987.87
2023-01-05T01:44:01.430Z,987.94
2023-01-05T01:45:01.421Z,988.18
2023-01-05T01:46:01.454Z,987.87
2023-01-05T01:47:01.394Z,988.11
2023-01-05T01:48:01.578Z,987.93
2023-01-05T01:49:01.384Z,987.89
2023-01-05T01:50:01.359Z,987.89
2023-01-05T01:51:07.888Z,987.93
2023-01-05T01:52:01.357Z,987.86
2023-01-05T01:53:01.323Z,987.88
2023-01-05T01:54:01.395Z,987.83
2023-01-05T01:55:01.528Z,987.85
2023-01-05T01:56:01.309Z,987.89
2023-01-05T01:57:01.301Z,987.81
2023-01-05T01:58:01.276Z,987.80
2023-01-05T01:59:01.276Z,987.84
2023-01-05T02:00:01.270Z,987.87
2023-01-05T02:01:01.516Z,987.83
2023-01-05T02:02:01.387Z,987.86
2023-01-05T02:03:01.240Z,987.73
2023-01-05T02:04:01.254Z,987.85
2023-01-05T02:05:01.223Z,987.80
2023-01-05T02:06:01.227Z,987.79
2023-01-05T02:07:01.204Z,987.72
2023-01-05T02:08:01.195Z,987.81
2023-01-05T02:09:01.225Z,987.69
2023-01-05T02:10:01.219Z,987.79
2023-01-05T02:11:01.165Z,987.73
2023-01-05T02:12:01.158Z,987.69
2023-01-05T02:13:01.147Z,987.73
2023-01-05T02:14:01.130Z,987.72
2023-01-05T02:15:01.124Z,987.70
2023-01-05T02:16:01.121Z,987.62
2023-01-05T02:17:01.183Z,987.58
2023-01-05T02:18:01.096Z,987.71
2023-01-05T02:19:01.083Z,987.55
2023-01-05T02:20:01.106Z,987.63
2023-01-05T02:21:01.064Z,987.78
2023-01-05T02:22:01.063Z,987.62
2023-01-05T02:23:01.055Z,987.63
2023-01-05T02:24:01.238Z,987.69
2023-01-05T02:25:01.021Z,987.63
2023-01-05T02:26:01.047Z,987.58
2023-01-05T02:27:01.032Z,987.57
2023-01-05T02:28:01.001Z,987.57
2023-01-05T02:29:00.984Z,987.58
2023-01-05T02:30:00.988Z,987.49
2023-01-05T02:31:01.032Z,987.53
2023-01-05T02:32:00.965Z,987.49
2023-01-05T02:33:01.155Z,987.47
2023-01-05T02:34:00.944Z,987.40
2023-01-05T02:35:00.952Z,987.54
2023-01-05T02:36:00.922Z,987.57
2023-01-05T02:37:00.954Z,987.51
2023-01-05T02:38:01.138Z,987.51
2023-01-05T02:39:01.113Z,987.57
2023-01-05T02:40:00.892Z,987.55
2023-01-05T02:41:00.902Z,987.65
2023-01-05T02:42:00.923Z,987.65
2023-01-05T02:43:00.854Z,987.72
2023-01-05T02:44:01.062Z,987.57
2023-01-05T02:45:00.855Z,987.71
2023-01-05T02:46:00.870Z,987.67
2023-01-05T02:47:00.861Z,987.64
2023-01-05T02:48:00.818Z,987.54
2023-01-05T02:49:00.792Z,987.59
2023-01-05T02:50:00.812Z,987.67
2023-01-05T02:51:00.802Z,987.60
2023-01-05T02:52:00.787Z,987.64
2023-01-05T02:53:00.969Z,987.57
2023-01-05T02:54:00.762Z,987.63
2023-01-05T02:55:00.749Z,987.64
2023-01-05T02:56:00.737Z,987.65
2023-01-05T02:57:00.728Z,987.68
2023-01-05T02:58:00.758Z,987.65
2023-01-05T02:59:00.715Z,987.73
2023-01-05T03:00:00.728Z,987.61
2023-01-05T03:01:00.932Z,987.64
2023-01-05T03:02:01.028Z,987.62
2023-01-05T03:03:00.771Z,987.70
2023-01-05T03:04:00.669Z,987.70
2023-01-05T03:05:00.657Z,987.66
2023-01-05T03:06:00.662Z,987.73
2023-01-05T03:07:00.641Z,987.77
2023-01-05T03:08:00.632Z,987.74
2023-01-05T03:09:00.604Z,987.78
2023-01-05T03:10:00.613Z,987.72
2023-01-05T03:11:00.635Z,987.82
2023-01-05T03:12:00.581Z,987.73
2023-01-05T03:13:00.575Z,987.79
2023-01-05T03:14:00.599Z,987.76
2023-01-05T03:15:00.564Z,987.80
2023-01-05T03:16:00.603Z,987.71
2023-01-05T03:17:00.541Z,987.84
2023-01-05T03:18:00.538Z,987.84
2023-01-05T03:19:00.508Z,987.91
2023-01-05T03:20:00.718Z,987.95
2023-01-05T03:21:00.761Z,988.00
2023-01-05T03:22:00.488Z,988.01
2023-01-05T03:23:00.479Z,987.93
2023-01-05T03:24:00.487Z,988.00
2023-01-05T03:25:00.475Z,987.98
2023-01-05T03:26:00.455Z,987.96
2023-01-05T03:27:00.442Z,987.89
2023-01-05T03:28:00.638Z,987.96
2023-01-05T03:29:00.528Z,988.09
2023-01-05T03:30:00.451Z,987.98
2023-01-05T03:31:00.493Z,987.96
2023-01-05T03:32:00.406Z,988.04
2023-01-05T03:33:00.402Z,988.09
2023-01-05T03:34:00.381Z,988.00
2023-01-05T03:35:00.371Z,988.07
2023-01-05T03:36:00.357Z,988.06
2023-01-05T03:37:00.352Z,988.09
2023-01-05T03:38:00.375Z,988.06
2023-01-05T03:39:00.325Z,988.05
2023-01-05T03:40:00.343Z,988.11
2023-01-05T03:41:00.327Z,988.10
2023-01-05T03:42:00.522Z,988.05
2023-01-05T03:43:00.338Z,988.06
2023-01-05T03:44:00.293Z,988.01
2023-01-05T03:45:00.286Z,988.00
2023-01-05T03:46:00.353Z,988.02
2023-01-05T03:47:00.260Z,988.03
2023-01-05T03:48:00.311Z,988.07
2023-01-05T03:49:00.248Z,988.14
2023-01-05T03:50:00.236Z,988.18
2023-01-05T03:51:00.253Z,988.21
2023-01-05T03:52:00.413Z,988.19
2023-01-05T03:53:00.210Z,988.19
2023-01-05T03:54:00.216Z,988.23
2023-01-05T03:55:00.181Z,988.15
2023-01-05T03:56:00.187Z,988.16
2023-01-05T03:57:00.221Z,988.24
2023-01-05T03:58:00.262Z,988.19
2023-01-05T03:59:00.180Z,988.31
2023-01-05T04:00:00.175Z,988.32
2023-01-05T04:01:00.346Z,988.26
2023-01-05T04:02:00.299Z,988.32
2023-01-05T04:03:00.306Z,988.34
2023-01-05T04:04:00.211Z,988.27
2023-01-05T04:05:00.495Z,988.29
2023-01-05T04:06:00.114Z,988.30
2023-01-05T04:07:00.110Z,988.22
2023-01-05T04:08:00.105Z,988.17
2023-01-05T04:09:00.086Z,988.19
2023-01-05T04:10:00.115Z,988.12
2023-01-05T04:11:00.027Z,988.13
2023-01-05T04:12:00.218Z,988.18
2023-01-05T04:13:00.026Z,988.16
2023-01-05T04:14:00.005Z,988.14
2023-01-05T04:15:00.009Z,988.14
2023-01-05T04:16:00.053Z,988.24
2023-01-05T04:16:59.982Z,988.24
2023-01-05T04:18:00.047Z,988.26
2023-01-05T04:18:59.961Z,988.21
2023-01-05T04:19:59.932Z,988.26
2023-01-05T04:20:59.943Z,988.27
2023-01-05T04:21:59.948Z,988.24
2023-01-05T04:22:59.931Z,988.22
2023-01-05T04:23:59.944Z,988.22
2023-01-05T04:25:00.185Z,988.15
2023-01-05T04:25:59.913Z,988.22
2023-01-05T04:26:59.888Z,988.22
2023-01-05T04:27:59.913Z,988.16
2023-01-05T04:28:59.894Z,988.24
2023-01-05T04:30:00.112Z,988.19
2023-01-05T04:31:00.116Z,988.27
2023-01-05T04:31:59.831Z,988.31
2023-01-05T04:32:59.857Z,988.22
2023-01-05T04:33:59.861Z,988.29
2023-01-05T04:35:03.846Z,988.29
2023-01-05T04:35:59.791Z,988.29
2023-01-05T04:36:59.800Z,988.26
2023-01-05T04:37:59.803Z,988.22
2023-01-05T04:38:59.820Z,988.25
2023-01-05T04:39:59.755Z,988.30
2023-01-05T04:40:59.770Z,988.39
2023-01-05T04:41:59.725Z,988.31
2023-01-05T04:42:59.724Z,988.32
2023-01-05T04:43:59.692Z,988.38
2023-01-05T04:44:59.730Z,988.42
2023-01-05T04:45:59.771Z,988.30
2023-01-05T04:46:59.713Z,988.26
2023-01-05T04:47:59.713Z,988.35
2023-01-05T04:48:59.928Z,988.40
2023-01-05T04:49:59.856Z,988.37
2023-01-05T04:50:59.708Z,988.30
2023-01-05T04:51:59.623Z,988.41
2023-01-05T04:52:59.641Z,988.36
2023-01-05T04:53:59.708Z,988.43
2023-01-05T04:54:59.811Z,988.46
2023-01-05T04:55:59.582Z,988.44
2023-01-05T04:56:59.634Z,988.53
2023-01-05T04:57:59.588Z,988.48
2023-01-05T04:58:59.638Z,988.45
2023-01-05T04:59:59.592Z,988.50
2023-01-05T05:00:59.547Z,988.51
2023-01-05T05:01:59.675Z,988.52
2023-01-05T05:02:59.650Z,988.50
2023-01-05T05:03:59.510Z,988.52
2023-01-05T05:04:59.486Z,988.50
2023-01-05T05:05:59.519Z,988.49
2023-01-05T05:06:59.494Z,988.74
2023-01-05T05:07:59.458Z,988.61
2023-01-05T05:08:59.517Z,988.79
2023-01-05T05:09:59.447Z,988.75
2023-01-05T05:10:59.466Z,988.60
2023-01-05T05:11:59.436Z,988.56
2023-01-05T05:12:59.428Z,988.53
2023-01-05T05:13:59.444Z,988.61
2023-01-05T05:14:59.390Z,988.62
2023-01-05T05:15:59.477Z,988.61
2023-01-05T05:16:59.399Z,988.65
2023-01-05T05:18:02.818Z,988.70
2023-01-05T05:18:59.435Z,988.75
2023-01-05T05:19:59.351Z,988.72
2023-01-05T05:20:59.312Z,988.70
2023-01-05T05:21:59.341Z,988.66
2023-01-05T05:22:59.342Z,988.68
2023-01-05T05:23:59.333Z,988.73
2023-01-05T05:24:59.564Z,988.78
2023-01-05T05:25:59.301Z,988.74
2023-01-05T05:26:59.301Z,988.71
2023-01-05T05:27:59.300Z,988.72
2023-01-05T05:28:59.271Z,988.73
2023-01-05T05:29:59.234Z,988.76
2023-01-05T05:30:59.537Z,988.71
2023-01-05T05:31:59.238Z,988.77
2023-01-05T05:32:59.223Z,988.72
2023-01-05T05:33:59.224Z,988.75
2023-01-05T05:34:59.239Z,988.74
2023-01-05T05:35:59.229Z,988.73
2023-01-05T05:36:59.415Z,988.72
2023-01-05T05:37:59.229Z,988.76
2023-01-05T05:38:59.287Z,988.72
2023-01-05T05:39:59.221Z,988.70
2023-01-05T05:40:59.127Z,988.71
2023-01-05T05:41:59.138Z,988.69
2023-01-05T05:42:59.133Z,988.69
2023-01-05T05:43:59.128Z,988.71
2023-01-05T05:44:59.073Z,988.70
2023-01-05T05:45:59.117Z,988.76
2023-01-05T05:46:59.332Z,988.72
2023-01-05T05:47:59.086Z,988.67
2023-01-05T05:48:59.060Z,988.74
2023-01-05T05:49:59.041Z,988.75
2023-01-05T05:50:59.005Z,988.76
2023-01-05T05:51:59.017Z,988.82
2023-01-05T05:52:59.036Z,988.76
2023-01-05T05:53:59.015Z,988.70
2023-01-05T05:54:58.995Z,988.73
2023-01-05T05:55:59.039Z,988.70
2023-01-05T05:56:59.070Z,988.73
2023-01-05T05:57:58.942Z,988.72
2023-01-05T05:59:01.515Z,988.84
2023-01-05T05:59:58.931Z,988.81
2023-01-05T06:00:58.955Z,988.82
2023-01-05T06:01:59.138Z,988.74
2023-01-05T06:02:59.053Z,988.85
2023-01-05T06:03:58.939Z,988.85
2023-01-05T06:04:59.085Z,988.84
2023-01-05T06:05:58.877Z,988.82
2023-01-05T06:06:58.854Z,988.79
2023-01-05T06:07:58.864Z,988.92
2023-01-05T06:08:58.858Z,988.93
2023-01-05T06:09:58.856Z,988.96
2023-01-05T06:10:58.829Z,988.96
2023-01-05T06:11:59.020Z,989.04
2023-01-05T06:12:58.794Z,989.06
2023-01-05T06:13:58.790Z,989.08
2023-01-05T06:14:58.759Z,989.12
2023-01-05T06:15:59.016Z,989.07
2023-01-05T06:16:58.752Z,989.10
2023-01-05T06:17:58.735Z,989.22
2023-01-05T06:18:58.737Z,989.13
2023-01-05T06:19:58.725Z,989.17
2023-01-05T06:21:01.743Z,989.24
2023-01-05T06:21:58.689Z,989.12
2023-01-05T06:22:58.874Z,989.14
2023-01-05T06:23:58.678Z,989.14
2023-01-05T06:24:58.894Z,989.17
2023-01-05T06:25:58.680Z,989.22
2023-01-05T06:26:58.684Z,989.20
2023-01-05T06:27:58.699Z,989.16
2023-01-05T06:28:58.635Z,989.19
2023-01-05T06:29:58.824Z,989.22
2023-01-05T06:30:58.615Z,989.19
2023-01-05T06:31:58.676Z,989.25
2023-01-05T06:32:58.598Z,989.27
2023-01-05T06:33:58.575Z,989.32
2023-01-05T06:34:58.585Z,989.36
2023-01-05T06:35:58.582Z,989.39
2023-01-05T06:37:02.228Z,989.33
2023-01-05T06:37:58.754Z,989.34
2023-01-05T06:38:58.543Z,989.37
2023-01-05T06:39:58.542Z,989.34
2023-01-05T06:40:58.525Z,989.40
2023-01-05T06:41:58.522Z,989.34
2023-01-05T06:42:58.480Z,989.32
2023-01-05T06:43:58.506Z,989.37
2023-01-05T06:44:58.472Z,989.36
2023-01-05T06:45:58.467Z,989.38
2023-01-05T06:46:58.653Z,989.38
2023-01-05T06:47:58.452Z,989.43
2023-01-05T06:48:58.416Z,989.42
2023-01-05T06:49:58.437Z,989.37
2023-01-05T06:50:58.403Z,989.42
2023-01-05T06:51:58.378Z,989.45
2023-01-05T06:52:58.394Z,989.43
2023-01-05T06:53:58.570Z,989.45
2023-01-05T06:54:58.362Z,989.46
2023-01-05T06:55:58.326Z,989.33
2023-01-05T06:56:58.392Z,989.47
2023-01-05T06:58:01.023Z,989.41
2023-01-05T06:58:58.316Z,989.48
2023-01-05T06:59:58.301Z,989.51
2023-01-05T07:00:58.320Z,989.54
2023-01-05T07:01:58.337Z,989.51
2023-01-05T07:02:58.272Z,989.52
2023-01-05T07:03:58.347Z,989.59
2023-01-05T07:04:58.239Z,989.61
2023-01-05T07:05:58.265Z,989.60
2023-01-05T07:06:58.239Z,989.59
2023-01-05T07:07:58.216Z,989.58
2023-01-05T07:08:58.269Z,989.71
2023-01-05T07:09:58.220Z,989.63
2023-01-05T07:10:58.236Z,989.75
2023-01-05T07:11:58.162Z,989.72
2023-01-05T07:12:58.179Z,989.71
2023-01-05T07:13:58.175Z,989.77
2023-01-05T07:14:58.159Z,989.79
2023-01-05T07:15:58.221Z,989.85
2023-01-05T07:16:58.164Z,989.85
2023-01-05T07:17:58.110Z,989.87
2023-01-05T07:18:58.101Z,989.88
2023-01-05T07:19:58.103Z,989.80
2023-01-05T07:20:58.094Z,989.89
2023-01-05T07:21:58.093Z,989.87
2023-01-05T07:22:58.058Z,989.91
2023-01-05T07:23:58.050Z,989.95
2023-01-05T07:24:58.082Z,989.93
2023-01-05T07:25:58.027Z,989.97
2023-01-05T07:26:58.033Z,990.06
2023-01-05T07:27:58.019Z,990.08
2023-01-05T07:28:58.190Z,990.03
2023-01-05T07:29:58.056Z,990.13
2023-01-05T07:30:57.995Z,990.02
2023-01-05T07:31:58.228Z,990.09
2023-01-05T07:32:57.971Z,990.18
2023-01-05T07:33:57.973Z,990.18
2023-01-05T07:34:57.972Z,990.15
2023-01-05T07:35:57.929Z,990.16
2023-01-05T07:36:57.909Z,990.20
2023-01-05T07:37:58.111Z,990.20
2023-01-05T07:38:59.638Z,990.30
2023-01-05T07:39:57.884Z,990.27
2023-01-05T07:40:57.882Z,990.28
2023-01-05T07:41:58.096Z,990.27
2023-01-05T07:42:57.841Z,990.30
2023-01-05T07:43:57.895Z,990.32
2023-01-05T07:44:57.846Z,990.26
2023-01-05T07:45:57.885Z,990.31
2023-01-05T07:46:57.805Z,990.37
2023-01-05T07:47:57.809Z,990.37
2023-01-05T07:48:57.796Z,990.39
2023-01-05T07:49:57.819Z,990.47
2023-01-05T07:50:57.794Z,990.48
2023-01-05T07:51:58.587Z,990.42
2023-01-05T07:52:57.958Z,990.45
2023-01-05T07:53:57.761Z,990.46
2023-01-05T07:54:58.748Z,990.45
2023-01-05T07:55:57.769Z,990.44
2023-01-05T07:56:57.725Z,990.46
2023-01-05T07:57:57.727Z,990.47
2023-01-05T07:58:57.702Z,990.45
2023-01-05T07:59:57.703Z,990.56
2023-01-05T08:00:57.748Z,990.52
2023-01-05T08:01:57.829Z,990.54
2023-01-05T08:02:57.844Z,990.62
2023-01-05T08:03:57.868Z,990.63
2023-01-05T08:04:57.625Z,990.58
2023-01-05T08:05:57.609Z,990.62
2023-01-05T08:06:57.588Z,990.62
2023-01-05T08:07:57.786Z,990.67
2023-01-05T08:08:57.586Z,990.66
2023-01-05T08:09:57.575Z,990.69
2023-01-05T08:10:57.561Z,990.72
2023-01-05T08:11:57.546Z,990.78
2023-01-05T08:12:57.537Z,990.76
2023-01-05T08:13:57.541Z,990.82
2023-01-05T08:14:57.522Z,990.79
2023-01-05T08:15:57.523Z,990.79
2023-01-05T08:16:57.593Z,990.87
2023-01-05T08:17:57.527Z,990.83
2023-01-05T08:18:57.525Z,990.84
2023-01-05T08:19:57.487Z,990.86
2023-01-05T08:20:57.462Z,990.86
2023-01-05T08:21:57.459Z,990.89
2023-01-05T08:22:57.444Z,990.91
2023-01-05T08:23:57.447Z,990.86
2023-01-05T08:24:57.458Z,990.93
2023-01-05T08:25:57.435Z,990.92
2023-01-05T08:26:57.436Z,990.95
2023-01-05T08:27:57.480Z,990.93
2023-01-05T08:28:57.601Z,991.00
2023-01-05T08:29:57.358Z,991.02
2023-01-05T08:30:57.353Z,991.04
2023-01-05T08:31:57.576Z,990.98
2023-01-05T08:32:57.532Z,991.00
2023-01-05T08:33:57.366Z,991.01
2023-01-05T08:34:57.333Z,991.05
2023-01-05T08:35:57.304Z,991.04
2023-01-05T08:36:57.336Z,991.07
2023-01-05T08:37:57.360Z,990.94
2023-01-05T08:38:57.330Z,990.99
2023-01-05T08:39:57.396Z,990.97
2023-01-05T08:40:57.269Z,990.90
2023-01-05T08:42:02.318Z,991.00
2023-01-05T08:42:57.247Z,991.05
2023-01-05T08:43:57.269Z,991.01
2023-01-05T08:44:57.224Z,991.02
2023-01-05T08:45:57.256Z,990.90
2023-01-05T08:46:57.245Z,991.05
2023-01-05T08:47:57.190Z,990.93
2023-01-05T08:48:57.242Z,991.02
2023-01-05T08:49:57.247Z,991.03
2023-01-05T08:50:57.211Z,991.01
2023-01-05T08:51:57.374Z,991.04
2023-01-05T08:52:57.429Z,991.05
2023-01-05T08:53:57.136Z,991.07
2023-01-05T08:54:57.108Z,991.06
2023-01-05T08:55:57.118Z,991.09
2023-01-05T08:56:57.112Z,991.08
2023-01-05T08:57:57.329Z,991.09
2023-01-05T08:58:57.114Z,991.07
2023-01-05T08:59:57.097Z,991.08
2023-01-05T09:00:57.133Z,991.16
2023-01-05T09:01:57.276Z,991.22
2023-01-05T09:02:57.193Z,991.20
2023-01-05T09:03:57.284Z,991.18
2023-01-05T09:04:57.297Z,991.19
2023-01-05T09:05:57.107Z,991.22
2023-01-05T09:06:57.027Z,991.24
2023-01-05T09:07:57.023Z,991.25
2023-01-05T09:08:57.009Z,991.27
2023-01-05T09:09:57.020Z,991.18
2023-01-05T09:10:57.003Z,991.21
2023-01-05T09:11:57.048Z,991.25
2023-01-05T09:12:56.985Z,991.27
2023-01-05T09:13:57.010Z,991.32
2023-01-05T09:14:56.987Z,991.28
2023-01-05T09:15:56.962Z,991.33
2023-01-05T09:17:07.088Z,991.35
2023-01-05T09:17:56.977Z,991.43
2023-01-05T09:18:56.949Z,991.46
2023-01-05T09:19:56.946Z,991.48
2023-01-05T09:20:57.128Z,991.50
2023-01-05T09:21:56.939Z,991.58
2023-01-05T09:22:56.925Z,991.60
2023-01-05T09:23:57.115Z,991.52
2023-01-05T09:24:56.889Z,991.61
2023-01-05T09:25:56.910Z,991.64
2023-01-05T09:26:56.887Z,991.59
2023-01-05T09:27:56.882Z,991.70
2023-01-05T09:28:56.884Z,991.58
2023-01-05T09:29:56.914Z,991.63
2023-01-05T09:30:56.965Z,991.69
2023-01-05T09:31:56.864Z,991.65
2023-01-05T09:32:56.835Z,991.81
2023-01-05T09:33:56.884Z,991.75
2023-01-05T09:34:56.879Z,991.80
2023-01-05T09:35:56.892Z,991.81
2023-01-05T09:36:56.825Z,991.86
2023-01-05T09:37:56.949Z,991.86
2023-01-05T09:38:56.876Z,991.81
2023-01-05T09:39:56.842Z,991.84
2023-01-05T09:40:56.808Z,991.84
2023-01-05T09:41:57.003Z,991.76
2023-01-05T09:42:56.983Z,991.78
2023-01-05T09:43:56.828Z,991.87
2023-01-05T09:44:59.067Z,991.79
2023-01-05T09:45:56.874Z,991.80
2023-01-05T09:46:56.757Z,991.88
2023-01-05T09:47:56.780Z,991.91
2023-01-05T09:48:56.762Z,991.83
2023-01-05T09:49:56.745Z,991.85
2023-01-05T09:50:56.787Z,991.93
2023-01-05T09:51:56.713Z,991.84
2023-01-05T09:52:56.720Z,991.90
2023-01-05T09:53:56.882Z,991.74
2023-01-05T09:54:56.828Z,991.95
2023-01-05T09:55:56.695Z,991.95
2023-01-05T09:57:12.127Z,992.03
2023-01-05T09:57:56.677Z,992.04
2023-01-05T09:58:56.658Z,991.97
2023-01-05T09:59:56.659Z,992.02
2023-01-05T10:00:56.657Z,992.00
2023-01-05T10:01:56.684Z,991.95
2023-01-05T10:02:56.732Z,991.96
2023-01-05T10:04:05.099Z,991.94
2023-01-05T10:04:56.913Z,991.95
2023-01-05T10:05:56.640Z,992.14
2023-01-05T10:06:56.642Z,991.97
2023-01-05T10:07:56.655Z,992.02
2023-01-05T10:08:56.631Z,992.03
2023-01-05T10:10:56.623Z,992.12
2023-01-05T10:11:56.598Z,992.05
2023-01-05T10:12:56.787Z,992.02
2023-01-05T10:13:56.603Z,991.98
2023-01-05T10:14:56.596Z,992.04
2023-01-05T10:15:56.593Z,992.08
2023-01-05T10:17:15.104Z,992.06
2023-01-05T10:17:56.617Z,992.09
2023-01-05T10:18:56.587Z,992.03
2023-01-05T10:19:56.619Z,992.09
2023-01-05T10:20:56.578Z,991.99
2023-01-05T10:21:56.553Z,991.99
2023-01-05T10:22:56.607Z,991.95
2023-01-05T10:23:56.529Z,991.98
2023-01-05T10:24:56.529Z,991.94
2023-01-05T10:25:56.846Z,992.06
2023-01-05T10:27:24.212Z,992.07
2023-01-05T10:27:57.131Z,991.97
2023-01-05T10:28:56.517Z,992.06
2023-01-05T10:29:56.500Z,992.03
2023-01-05T10:30:56.571Z,991.99
2023-01-05T10:31:56.479Z,991.95
2023-01-05T10:33:14.832Z,992.03
2023-01-05T10:34:00.274Z,992.01
2023-01-05T10:34:56.499Z,991.96
2023-01-05T10:36:01.563Z,992.03
2023-01-05T10:37:11.832Z,992.08
2023-01-05T10:37:56.675Z,992.03
2023-01-05T10:38:56.471Z,992.07
2023-01-05T10:39:56.971Z,992.04
2023-01-05T10:40:56.448Z,992.06
2023-01-05T10:41:56.590Z,992.07
2023-01-05T10:42:56.441Z,992.12
2023-01-05T10:43:56.429Z,992.08
2023-01-05T10:44:56.425Z,991.97
2023-01-05T10:46:29.748Z,992.09
2023-01-05T10:46:56.477Z,992.13
2023-01-05T10:47:56.464Z,992.04
2023-01-05T10:48:56.409Z,992.12
2023-01-05T10:49:56.643Z,992.09
2023-01-05T10:50:56.392Z,992.11
2023-01-05T10:51:57.098Z,991.98
2023-01-05T10:52:56.391Z,992.13
2023-01-05T10:53:56.387Z,992.18
2023-01-05T10:54:56.388Z,992.13
2023-01-05T10:55:56.379Z,992.14
2023-01-05T10:56:56.383Z,992.17
2023-01-05T10:57:56.393Z,992.20
2023-01-05T10:58:56.381Z,992.14
2023-01-05T10:59:56.450Z,992.18
2023-01-05T11:00:56.374Z,992.23
2023-01-05T11:01:56.547Z,992.21
2023-01-05T11:02:56.347Z,992.21
2023-01-05T11:04:25.607Z,992.23
2023-01-05T11:04:56.591Z,992.19
2023-01-05T11:05:56.349Z,992.18
2023-01-05T11:06:56.542Z,992.19
2023-01-05T11:07:56.338Z,992.25
2023-01-05T11:08:56.321Z,992.20
2023-01-05T11:09:56.337Z,992.22
2023-01-05T11:10:56.336Z,992.26
2023-01-05T11:11:56.309Z,992.20
2023-01-05T11:12:56.318Z,992.22
2023-01-05T11:13:56.441Z,992.27
2023-01-05T11:14:58.745Z,992.27
2023-01-05T11:15:56.418Z,992.24
2023-01-05T11:16:56.293Z,992.22
2023-01-05T11:17:56.529Z,992.23
2023-01-05T11:18:56.293Z,992.31
2023-01-05T11:19:56.324Z,992.28
2023-01-05T11:20:56.294Z,992.31
2023-01-05T11:22:01.645Z,992.31
2023-01-05T11:22:56.319Z,992.29
2023-01-05T11:23:56.298Z,992.27
2023-01-05T11:24:56.307Z,992.29
2023-01-05T11:25:56.280Z,992.38
2023-01-05T11:26:56.287Z,992.22
2023-01-05T11:28:00.577Z,992.30
2023-01-05T11:28:56.279Z,992.22
2023-01-05T11:29:56.421Z,992.23
2023-01-05T11:30:56.313Z,992.24
2023-01-05T11:31:56.237Z,992.22
2023-01-05T11:32:56.301Z,992.25
2023-01-05T11:33:56.226Z,992.28
2023-01-05T11:34:56.231Z,992.30
2023-01-05T11:35:56.217Z,992.25
2023-01-05T11:36:56.217Z,992.24
2023-01-05T11:37:56.416Z,992.30
2023-01-05T11:38:56.206Z,992.36
2023-01-05T11:39:56.397Z,992.32
2023-01-05T11:40:56.194Z,992.31
2023-01-05T11:41:56.162Z,992.31
2023-01-05T11:42:56.161Z,992.35
2023-01-05T11:43:56.150Z,992.29
2023-01-05T11:44:56.168Z,992.39
2023-01-05T11:45:56.332Z,992.32
2023-01-05T11:46:56.246Z,992.18
2023-01-05T11:47:56.142Z,992.18
2023-01-05T11:48:56.128Z,992.18
2023-01-05T11:49:58.567Z,992.28
2023-01-05T11:50:56.123Z,992.30
2023-01-05T11:51:56.109Z,992.29
2023-01-05T11:52:56.110Z,992.25
2023-01-05T11:53:56.100Z,992.21
2023-01-05T11:54:56.280Z,992.32
2023-01-05T11:55:56.085Z,992.25
2023-01-05T11:56:56.064Z,992.14
2023-01-05T11:58:00.239Z,992.20
2023-01-05T11:58:56.069Z,992.28
2023-01-05T11:59:56.041Z,992.33
2023-01-05T12:00:56.135Z,992.22
2023-01-05T12:01:56.200Z,992.29
2023-01-05T12:02:56.093Z,992.28
2023-01-05T12:03:58.890Z,992.25
2023-01-05T12:04:56.012Z,992.39
2023-01-05T12:05:56.016Z,992.34
2023-01-05T12:06:56.019Z,992.40
2023-01-05T12:07:56.036Z,992.52
2023-01-05T12:08:56.065Z,992.50
2023-01-05T12:09:56.015Z,992.51
2023-01-05T12:10:55.958Z,992.57
2023-01-05T12:11:55.963Z,992.51
2023-01-05T12:12:55.965Z,992.52
2023-01-05T12:13:55.957Z,992.57
2023-01-05T12:14:55.953Z,992.51
2023-01-05T12:16:00.402Z,992.61
2023-01-05T12:16:55.920Z,992.61
2023-01-05T12:17:56.027Z,992.61
2023-01-05T12:18:55.898Z,992.67
2023-01-05T12:19:55.920Z,992.63
2023-01-05T12:20:55.898Z,992.67
2023-01-05T12:22:00.604Z,992.61
2023-01-05T12:22:55.877Z,992.58
2023-01-05T12:23:55.872Z,992.62
2023-01-05T12:24:55.871Z,992.60
2023-01-05T12:25:55.843Z,992.60
2023-01-05T12:26:55.853Z,992.67
2023-01-05T12:27:59.159Z,992.70
2023-01-05T12:29:34.778Z,992.72